Skip Navigation Links Skip Navigation Links

Current Weather

Dodge County, Juneau, Wis.

For information only: do not use for flight planning or navigation.
Latest weather
Observation time Friday, December 3, 2021 2:55 AM CST
Local time Friday, December 3, 2021 3:12 AM CST
Flight conditions Marginal Visual Meteorological Conditions
Winds
Wind speed calm
Visibility 4 mi.
Present weather light snow
Sky condition
Ceiling 2,100 ft. broken clouds
Cloud layer broken clouds 2,100 ft.
Cloud layer overcast 2,800 ft.
Temperature 32°F
Dewpoint 31°F
Altimeter 30.08 in.Hg
Derived measurements
Relative humidity 96%
Wind chill 32°F
Density altitude -978 ft.
Remarks
Fully automated report.
Automated weather observing station with precipitation discriminator.
METAR KUNU 030855Z AUTO 00000KT 4SM -SN BKN021 OVC028 00/00 A3008 RMK AO2 T00011004

Settings

Location code

InnerDrive.Weather 4.0.6770.0 Release CLR 4.0.30319.42000
Copyright ©2018 Inner Drive Technology. All rights reserved. Portions Copyright ©1986-2018 David Braverman.

Find weather

Site navigation


Skip Navigation Links

Place info

Page info

PayPal - The safer, easier way to pay online!

Return home.

Copyright ©2021 Inner Drive Technology. Purveyors of fine, hand-crafted computer software. Page printed 2021-12-03T09:12:27 UTC.